If you wish to contribute or participate in the discussions about articles you are invited to join SKYbrary as a registered user

 Actions

Istanbul/Atatürk Airport

From SKYbrary Wiki

LTBA
Airport
ICAO: LTBA – IATA: IST
Summary
Name Istanbul/Atatürk Airport
Region Europe
Territory Turkey TR.gif
Location Yeşilköy, Istanbul
Serving Istanbul
Elevation 49.682 m <br />163 ft <br />163 ft49.682 m <br />
Coordinates 40° 58' 28.63" N, 28° 48' 35.32" E
Runways
Designator Length Width Surface ROPS
5/23 2600 m8,530.184 ft <br /> 60 m196.85 ft <br /> ASP yes/yes
17L/35R 3000 m9,842.52 ft <br /> 45 m147.638 ft <br /> CON yes/yes
17R/35L 3000 m9,842.52 ft <br /> 45 m147.638 ft <br /> CON yes/yes


METAR
Observation LTBA 041420Z 24005KT 210V270 CAVOK 09/02 Q1022 NOSIG
Station Istanbul / Ataturk
Date/Time 04 March 2021 14:20:00
Wind direction 240°
Wind speed 05 kts
Lowest cloud amount clouds and visibility OK
Temperature 9°C
Dew point 2°C
Humidity 61%
QNH 1022 hPa
Weather condition n/a

Airport serving city of Istanbul. Until April 2019, it was the main international airport serving Istanbul.

Climatology

Dry-summer subtropical ”Mediterranean" climate (Köppen climate classification Csa)

Maps

Terrain

Loading map...

Airport Layout

Loading map...


Accidents & Serious Incidents at or in vicinity of LTBA

None on SKYbrary